Time;durP1;ratioP1;P1;durP2;ratioP2;P2;SDS_P1;SDS_P2;PMS_P1;PMS_P2;Temp;Humidity;BMP_temperature;BMP_pressure;BME280_temperature;BME280_humidity;BME280_pressure;Samples;Min_cycle;Max_cycle;Signal;HPM_P1;HPM_P2
2021/09/28 00:01:21;;;;;;;12.70;7.47;;;;;;;;;;5032388;28;20408;-46
2021/09/28 00:03:47;;;;;;;12.50;7.40;;;;;;;;;;5032196;28;20422;-46
2021/09/28 00:06:13;;;;;;;24.87;7.90;;;;;;;;;;5032351;28;20503;-45
2021/09/28 00:08:42;;;;;;;10.00;6.17;;;;;;;;;;5032307;28;20491;-47
2021/09/28 00:11:08;;;;;;;15.27;6.50;;;;;;;;;;5032154;28;20408;-46
2021/09/28 00:13:34;;;;;;;10.90;5.80;;;;;;;;;;5032173;28;20421;-46
2021/09/28 00:16:00;;;;;;;9.40;5.97;;;;;;;;;;5032212;28;20550;-47
2021/09/28 00:18:26;;;;;;;15.50;5.53;;;;;;;;;;5032210;28;20400;-48
2021/09/28 00:20:52;;;;;;;11.93;5.90;;;;;;;;;;5032037;28;20775;-49
2021/09/28 00:23:18;;;;;;;11.37;5.53;;;;;;;;;;5031854;28;20423;-46
2021/09/28 00:25:44;;;;;;;10.30;5.93;;;;;;;;;;5032020;28;20917;-48
2021/09/28 00:28:10;;;;;;;16.70;5.23;;;;;;;;;;5032051;28;20941;-49
2021/09/28 00:30:36;;;;;;;14.17;4.77;;;;;;;;;;5031227;28;20403;-49
2021/09/28 00:33:02;;;;;;;10.80;5.13;;;;;;;;;;5031638;28;20429;-45
2021/09/28 00:35:28;;;;;;;16.50;4.97;;;;;;;;;;5031950;28;20823;-46
2021/09/28 00:37:54;;;;;;;16.67;5.30;;;;;;;;;;5031926;28;20641;-45
2021/09/28 00:40:20;;;;;;;6.27;4.87;;;;;;;;;;5031854;28;20394;-46
2021/09/28 00:42:46;;;;;;;18.40;5.23;;;;;;;;;;5031521;28;20524;-46
2021/09/28 00:45:12;;;;;;;9.13;4.87;;;;;;;;;;5031913;28;20414;-47
2021/09/28 00:47:38;;;;;;;19.30;5.10;;;;;;;;;;5031802;28;20409;-46
2021/09/28 00:50:05;;;;;;;12.77;4.60;;;;;;;;;;5031791;28;20880;-47
2021/09/28 00:52:31;;;;;;;11.30;5.03;;;;;;;;;;5031413;28;20465;-46
2021/09/28 00:54:57;;;;;;;14.13;6.23;;;;;;;;;;5031562;28;20421;-46
2021/09/28 00:57:23;;;;;;;11.30;4.00;;;;;;;;;;5031778;28;20403;-45
2021/09/28 00:59:49;;;;;;;9.10;4.43;;;;;;;;;;5031610;28;20831;-46
2021/09/28 01:02:15;;;;;;;8.60;4.17;;;;;;;;;;5031028;28;20402;-46
2021/09/28 01:04:41;;;;;;;17.83;5.17;;;;;;;;;;5031381;28;20871;-47
2021/09/28 01:07:08;;;;;;;11.60;4.70;;;;;;;;;;5031656;28;20469;-46
2021/09/28 01:09:34;;;;;;;9.27;5.03;;;;;;;;;;5031374;28;20464;-48
2021/09/28 01:12:01;;;;;;;10.13;4.17;;;;;;;;;;5031247;28;20891;-46
2021/09/28 01:14:27;;;;;;;10.00;4.63;;;;;;;;;;5031396;28;20407;-46
2021/09/28 01:16:53;;;;;;;10.90;4.53;;;;;;;;;;5031527;28;20461;-46
2021/09/28 01:19:19;;;;;;;7.03;4.10;;;;;;;;;;5031639;28;20409;-45
2021/09/28 01:21:46;;;;;;;14.33;6.13;;;;;;;;;;5031292;28;20776;-46
2021/09/28 01:24:12;;;;;;;10.50;4.27;;;;;;;;;;5031365;28;20427;-47
2021/09/28 01:26:39;;;;;;;16.17;4.73;;;;;;;;;;5031442;28;20778;-47
2021/09/28 01:29:07;;;;;;;7.43;4.43;;;;;;;;;;5031414;28;20497;-46
2021/09/28 01:31:33;;;;;;;12.47;4.80;;;;;;;;;;5031334;28;20493;-46
2021/09/28 01:33:59;;;;;;;13.97;4.80;;;;;;;;;;5031152;28;20836;-46
2021/09/28 01:36:25;;;;;;;13.63;4.33;;;;;;;;;;5031380;28;20454;-46
2021/09/28 01:38:51;;;;;;;12.43;4.60;;;;;;;;;;5031357;28;20766;-46
2021/09/28 01:41:17;;;;;;;11.43;4.10;;;;;;;;;;5032569;28;20386;-45
2021/09/28 01:43:43;;;;;;;16.57;5.57;;;;;;;;;;5034676;28;20417;-46
2021/09/28 01:46:09;;;;;;;7.20;4.20;;;;;;;;;;5035017;28;20437;-46
2021/09/28 01:48:41;;;;;;;8.90;3.70;;;;;;;;;;5034932;28;20414;-50
2021/09/28 01:51:07;;;;;;;14.37;4.10;;;;;;;;;;5034765;28;20402;-46
2021/09/28 01:53:33;;;;;;;9.27;4.60;;;;;;;;;;5034727;28;20425;-46
2021/09/28 01:55:59;;;;;;;13.13;4.30;;;;;;;;;;5034718;28;20464;-45
2021/09/28 01:58:25;;;;;;;6.77;3.90;;;;;;;;;;5034998;28;20405;-46
2021/09/28 02:00:51;;;;;;;7.33;3.47;;;;;;;;;;5034678;28;20834;-47
2021/09/28 02:03:18;;;;;;;10.07;3.40;;;;;;;;;;5034422;28;20420;-48
2021/09/28 02:05:47;;;;;;;9.20;4.60;;;;;;;;;;5034522;28;20426;-46
2021/09/28 02:08:13;;;;;;;11.20;4.30;;;;;;;;;;5034606;28;20414;-47
2021/09/28 02:10:39;;;;;;;10.70;3.80;;;;;;;;;;5034098;28;20407;-48
2021/09/28 02:13:05;;;;;;;13.13;4.77;;;;;;;;;;5034082;28;20472;-48
2021/09/28 02:15:31;;;;;;;6.33;3.90;;;;;;;;;;5034291;28;20604;-48
2021/09/28 02:17:59;;;;;;;6.63;3.33;;;;;;;;;;5034395;28;20407;-46
2021/09/28 02:20:25;;;;;;;8.80;3.77;;;;;;;;;;5034367;28;20399;-46
2021/09/28 02:22:51;;;;;;;7.73;3.53;;;;;;;;;;5033877;28;20517;-45
2021/09/28 02:25:19;;;;;;;13.27;3.90;;;;;;;;;;5034334;28;20406;-46
2021/09/28 02:27:45;;;;;;;10.37;3.50;;;;;;;;;;5034162;28;20931;-46
2021/09/28 02:30:12;;;;;;;7.60;3.37;;;;;;;;;;5034231;28;20497;-46
2021/09/28 02:32:38;;;;;;;9.80;3.60;;;;;;;;;;5034260;28;20907;-46
2021/09/28 02:35:04;;;;;;;7.07;3.63;;;;;;;;;;5034000;28;20436;-46
2021/09/28 02:37:30;;;;;;;8.30;4.10;;;;;;;;;;5034035;28;20921;-45
2021/09/28 02:39:56;;;;;;;14.73;4.10;;;;;;;;;;5034046;28;20438;-45
2021/09/28 02:42:22;;;;;;;9.27;3.80;;;;;;;;;;5033599;28;20454;-46
2021/09/28 02:44:50;;;;;;;9.50;3.80;;;;;;;;;;5033943;28;20417;-45
2021/09/28 02:47:16;;;;;;;12.13;4.30;;;;;;;;;;5034023;28;20482;-46
2021/09/28 02:49:42;;;;;;;9.97;3.23;;;;;;;;;;5033751;28;20493;-46
2021/09/28 02:52:08;;;;;;;11.73;3.60;;;;;;;;;;5033295;28;20414;-46
2021/09/28 02:54:34;;;;;;;7.00;2.90;;;;;;;;;;5033153;28;20388;-48
2021/09/28 02:57:00;;;;;;;13.03;4.00;;;;;;;;;;5033584;28;20479;-46
2021/09/28 02:59:25;;;;;;;14.00;3.80;;;;;;;;;;5033756;28;20910;-45
2021/09/28 03:01:51;;;;;;;10.30;3.23;;;;;;;;;;5033344;28;20405;-46
2021/09/28 03:04:17;;;;;;;9.17;3.27;;;;;;;;;;5033392;28;20471;-48
2021/09/28 03:06:43;;;;;;;10.03;3.20;;;;;;;;;;5033467;28;20409;-46
2021/09/28 03:09:09;;;;;;;14.83;4.70;;;;;;;;;;5033469;28;20400;-46
2021/09/28 03:11:35;;;;;;;6.63;3.50;;;;;;;;;;5033344;28;20505;-46
2021/09/28 03:14:01;;;;;;;10.87;3.80;;;;;;;;;;5033191;28;20419;-45
2021/09/28 03:16:27;;;;;;;10.70;3.83;;;;;;;;;;5033190;28;20470;-46
2021/09/28 03:18:53;;;;;;;6.63;3.20;;;;;;;;;;5033139;28;20493;-48
2021/09/28 03:21:19;;;;;;;10.93;3.37;;;;;;;;;;5033223;28;20404;-48
2021/09/28 03:23:45;;;;;;;9.33;3.53;;;;;;;;;;5032948;28;21096;-46
2021/09/28 03:26:11;;;;;;;10.23;3.90;;;;;;;;;;5033105;28;20764;-45
2021/09/28 03:28:37;;;;;;;9.77;3.63;;;;;;;;;;5033128;28;20771;-45
2021/09/28 03:31:03;;;;;;;11.70;3.70;;;;;;;;;;5033023;28;20847;-46
2021/09/28 03:33:29;;;;;;;9.93;3.47;;;;;;;;;;5032600;28;20426;-45
2021/09/28 03:35:57;;;;;;;6.93;3.50;;;;;;;;;;5032857;28;20461;-45
2021/09/28 03:38:23;;;;;;;11.33;3.80;;;;;;;;;;5032881;28;20409;-47
2021/09/28 03:40:49;;;;;;;10.10;3.50;;;;;;;;;;5032726;28;20445;-49
2021/09/28 03:43:15;;;;;;;12.70;3.70;;;;;;;;;;5032615;28;20472;-48
2021/09/28 03:45:41;;;;;;;10.10;3.00;;;;;;;;;;5032826;28;20808;-45
2021/09/28 03:48:07;;;;;;;9.40;4.30;;;;;;;;;;5032667;28;20414;-45
2021/09/28 03:50:33;;;;;;;12.57;4.60;;;;;;;;;;5032714;28;20449;-50
2021/09/28 03:52:59;;;;;;;12.30;4.30;;;;;;;;;;5032228;28;20426;-48
2021/09/28 03:55:26;;;;;;;18.50;3.33;;;;;;;;;;5032553;28;20466;-48
2021/09/28 03:57:52;;;;;;;8.83;3.63;;;;;;;;;;5032540;28;20805;-49
2021/09/28 04:00:20;;;;;;;12.00;3.80;;;;;;;;;;5032513;28;20894;-46
2021/09/28 04:02:46;;;;;;;11.47;4.50;;;;;;;;;;5031996;28;20506;-45
2021/09/28 04:05:12;;;;;;;9.40;3.90;;;;;;;;;;5032512;28;20795;-47
2021/09/28 04:07:39;;;;;;;15.90;4.17;;;;;;;;;;5032368;28;20417;-46
2021/09/28 04:10:06;;;;;;;9.77;3.80;;;;;;;;;;5032253;28;20403;-46
2021/09/28 04:12:32;;;;;;;9.73;3.90;;;;;;;;;;5031942;28;20427;-46
2021/09/28 04:14:59;;;;;;;14.10;4.00;;;;;;;;;;5032092;28;20792;-46
2021/09/28 04:17:25;;;;;;;13.97;4.33;;;;;;;;;;5032242;28;20438;-46
2021/09/28 04:19:51;;;;;;;12.53;3.70;;;;;;;;;;5032375;28;20398;-47
2021/09/28 04:22:18;;;;;;;7.50;3.50;;;;;;;;;;5031796;28;20459;-47
2021/09/28 04:24:44;;;;;;;8.00;3.07;;;;;;;;;;5032113;28;20807;-45
2021/09/28 04:27:10;;;;;;;10.63;3.93;;;;;;;;;;5032071;28;20398;-47
2021/09/28 04:29:37;;;;;;;10.40;3.90;;;;;;;;;;5031983;28;20494;-46
2021/09/28 04:32:04;;;;;;;11.90;4.07;;;;;;;;;;5031616;28;20413;-45
2021/09/28 04:34:29;;;;;;;11.37;3.67;;;;;;;;;;5031977;28;20404;-45
2021/09/28 04:36:55;;;;;;;7.23;3.37;;;;;;;;;;5031885;28;20464;-45
2021/09/28 04:39:21;;;;;;;9.73;3.67;;;;;;;;;;5031884;28;20410;-46
2021/09/28 04:41:47;;;;;;;10.00;3.73;;;;;;;;;;5031633;28;20402;-46
2021/09/28 04:44:13;;;;;;;7.80;2.80;;;;;;;;;;5032468;28;20423;-50
2021/09/28 04:46:39;;;;;;;16.63;3.47;;;;;;;;;;5032087;28;20394;-50
2021/09/28 04:49:05;;;;;;;6.30;3.40;;;;;;;;;;5031780;28;20460;-48
2021/09/28 04:51:31;;;;;;;7.80;3.00;;;;;;;;;;5031676;28;20402;-49
2021/09/28 04:53:57;;;;;;;13.80;3.80;;;;;;;;;;5031464;28;20954;-49
2021/09/28 04:56:23;;;;;;;4.70;3.33;;;;;;;;;;5031711;28;20481;-49
2021/09/28 04:58:49;;;;;;;5.80;3.30;;;;;;;;;;5031672;28;20448;-49
2021/09/28 05:01:16;;;;;;;7.60;4.00;;;;;;;;;;5031648;28;20402;-50
2021/09/28 05:03:43;;;;;;;12.00;3.37;;;;;;;;;;5031434;28;20425;-51
2021/09/28 05:06:09;;;;;;;12.27;5.00;;;;;;;;;;5031671;28;20399;-50
2021/09/28 05:08:35;;;;;;;6.73;3.77;;;;;;;;;;5031761;28;20406;-49
2021/09/28 05:11:01;;;;;;;10.90;3.60;;;;;;;;;;5031568;28;20405;-50
2021/09/28 05:13:28;;;;;;;18.23;4.10;;;;;;;;;;5031215;28;20426;-49
2021/09/28 05:15:54;;;;;;;9.90;2.90;;;;;;;;;;5032146;28;20969;-51
2021/09/28 05:18:20;;;;;;;8.90;3.93;;;;;;;;;;5035545;28;20413;-51
2021/09/28 05:20:46;;;;;;;6.07;3.70;;;;;;;;;;5035516;28;20409;-50
2021/09/28 05:23:12;;;;;;;20.00;4.23;;;;;;;;;;5035053;28;20429;-49
2021/09/28 05:25:38;;;;;;;7.90;3.93;;;;;;;;;;5035430;28;20412;-49
2021/09/28 05:28:04;;;;;;;9.27;3.90;;;;;;;;;;5035249;28;20481;-51
2021/09/28 05:30:30;;;;;;;13.30;3.33;;;;;;;;;;5035310;28;20885;-50
2021/09/28 05:32:56;;;;;;;12.07;3.80;;;;;;;;;;5035270;28;20433;-50
2021/09/28 05:35:22;;;;;;;9.80;3.90;;;;;;;;;;5035216;28;20449;-49
2021/09/28 05:37:48;;;;;;;9.03;3.33;;;;;;;;;;5035165;28;20421;-49
2021/09/28 05:40:14;;;;;;;6.73;3.43;;;;;;;;;;5035180;28;20862;-49
2021/09/28 05:42:40;;;;;;;11.97;3.80;;;;;;;;;;5034676;28;20939;-51
2021/09/28 05:45:07;;;;;;;16.60;3.73;;;;;;;;;;5035029;28;20489;-49
2021/09/28 05:47:33;;;;;;;8.20;3.33;;;;;;;;;;5035067;28;20398;-48
2021/09/28 05:49:59;;;;;;;9.40;4.73;;;;;;;;;;5034946;28;20401;-49
2021/09/28 05:52:25;;;;;;;12.93;3.87;;;;;;;;;;5034614;28;20431;-49
2021/09/28 05:54:51;;;;;;;8.77;3.87;;;;;;;;;;5034897;28;20488;-50
2021/09/28 05:57:18;;;;;;;20.83;3.53;;;;;;;;;;5034700;28;20515;-51
2021/09/28 05:59:44;;;;;;;11.10;3.60;;;;;;;;;;5034766;28;20489;-48
2021/09/28 06:02:10;;;;;;;10.53;4.30;;;;;;;;;;5034387;28;20489;-48
2021/09/28 06:04:36;;;;;;;8.63;3.97;;;;;;;;;;5034714;28;20406;-49
2021/09/28 06:07:03;;;;;;;5.50;3.07;;;;;;;;;;5034567;28;20767;-48
2021/09/28 06:09:30;;;;;;;5.90;2.83;;;;;;;;;;5034676;28;20890;-49
2021/09/28 06:11:56;;;;;;;12.77;3.50;;;;;;;;;;5034141;28;20413;-49
2021/09/28 06:14:23;;;;;;;7.50;3.03;;;;;;;;;;5034450;28;20408;-50
2021/09/28 06:16:49;;;;;;;7.23;3.10;;;;;;;;;;5034365;28;20497;-49
2021/09/28 06:19:15;;;;;;;5.33;3.23;;;;;;;;;;5034527;28;20477;-49
2021/09/28 06:21:41;;;;;;;8.13;3.00;;;;;;;;;;5034183;28;20406;-50
2021/09/28 06:24:07;;;;;;;17.47;3.77;;;;;;;;;;5033828;28;20436;-48
2021/09/28 06:26:33;;;;;;;3.40;2.60;;;;;;;;;;5033274;28;20419;-49
2021/09/28 06:28:59;;;;;;;9.37;3.33;;;;;;;;;;5032502;28;20498;-50
2021/09/28 06:31:25;;;;;;;14.53;3.60;;;;;;;;;;5033286;28;20909;-50
2021/09/28 06:33:51;;;;;;;7.70;3.30;;;;;;;;;;5033436;28;20511;-51
2021/09/28 06:36:17;;;;;;;9.53;3.73;;;;;;;;;;5033574;28;20463;-51
2021/09/28 06:38:43;;;;;;;8.77;4.20;;;;;;;;;;5033405;28;20454;-50
2021/09/28 06:41:09;;;;;;;11.97;4.00;;;;;;;;;;5033405;28;20405;-51
2021/09/28 06:43:35;;;;;;;9.80;4.00;;;;;;;;;;5033031;28;20579;-52
2021/09/28 06:46:01;;;;;;;13.00;3.17;;;;;;;;;;5033404;28;20845;-50
2021/09/28 06:48:27;;;;;;;9.37;3.70;;;;;;;;;;5033245;28;20784;-50
2021/09/28 06:50:53;;;;;;;7.20;3.07;;;;;;;;;;5033225;28;20409;-50
2021/09/28 06:53:19;;;;;;;6.33;2.70;;;;;;;;;;5032844;28;20418;-48
2021/09/28 06:55:45;;;;;;;8.00;2.73;;;;;;;;;;5033148;28;20964;-51
2021/09/28 06:58:11;;;;;;;4.10;2.53;;;;;;;;;;5033194;28;20492;-51
2021/09/28 07:00:37;;;;;;;4.43;2.67;;;;;;;;;;5033044;28;20397;-51
2021/09/28 07:03:03;;;;;;;11.77;2.63;;;;;;;;;;5032811;28;20779;-51
2021/09/28 07:05:29;;;;;;;9.57;2.60;;;;;;;;;;5032876;28;20420;-51
2021/09/28 07:07:55;;;;;;;13.37;2.60;;;;;;;;;;5033039;28;20410;-51
2021/09/28 07:10:21;;;;;;;9.60;2.60;;;;;;;;;;5032737;28;20406;-51
2021/09/28 07:12:47;;;;;;;5.43;2.47;;;;;;;;;;5031292;28;20484;-51
2021/09/28 07:15:17;;;;;;;6.87;2.37;;;;;;;;;;5031991;28;20527;-51
2021/09/28 07:17:43;;;;;;;10.63;2.37;;;;;;;;;;5032305;28;20424;-50
2021/09/28 07:20:10;;;;;;;5.73;2.20;;;;;;;;;;5012440;28;20415;-52
2021/09/28 07:22:35;;;;;;;5.70;2.20;;;;;;;;;;5013200;28;20423;-51
2021/09/28 07:25:01;;;;;;;9.30;2.60;;;;;;;;;;5013678;28;20399;-52
2021/09/28 07:27:27;;;;;;;8.60;2.20;;;;;;;;;;5013365;28;20387;-51
2021/09/28 07:29:55;;;;;;;8.70;3.00;;;;;;;;;;5013323;28;20404;-50
2021/09/28 07:32:21;;;;;;;7.00;2.60;;;;;;;;;;5012956;28;20411;-52
2021/09/28 07:34:47;;;;;;;8.40;2.47;;;;;;;;;;5013244;28;20399;-51
2021/09/28 07:37:13;;;;;;;5.53;2.13;;;;;;;;;;5013089;28;20451;-52
2021/09/28 07:39:39;;;;;;;2.97;2.03;;;;;;;;;;5012881;28;20409;-52
2021/09/28 07:42:05;;;;;;;4.67;2.10;;;;;;;;;;5012747;28;20399;-52
2021/09/28 07:44:32;;;;;;;4.80;1.83;;;;;;;;;;5013077;28;20407;-52
2021/09/28 07:47:01;;;;;;;5.77;2.27;;;;;;;;;;5013385;28;20461;-51
2021/09/28 07:49:27;;;;;;;5.57;1.90;;;;;;;;;;5012886;28;20913;-51
2021/09/28 07:51:53;;;;;;;5.93;2.07;;;;;;;;;;5012465;28;20411;-52
2021/09/28 07:54:19;;;;;;;6.40;2.50;;;;;;;;;;5012719;28;20427;-49
2021/09/28 07:56:45;;;;;;;12.63;3.57;;;;;;;;;;5012804;28;20458;-49
2021/09/28 07:59:11;;;;;;;8.33;2.23;;;;;;;;;;5012789;28;20870;-52
2021/09/28 08:01:37;;;;;;;8.13;1.90;;;;;;;;;;5012706;28;20404;-52
2021/09/28 08:04:05;;;;;;;4.43;1.97;;;;;;;;;;5012601;28;20510;-52
2021/09/28 08:06:31;;;;;;;7.10;2.40;;;;;;;;;;5012404;28;20406;-51
2021/09/28 08:08:57;;;;;;;3.93;2.50;;;;;;;;;;5012580;28;20426;-51
2021/09/28 08:11:23;;;;;;;3.80;1.77;;;;;;;;;;5012544;28;20411;-50
2021/09/28 08:13:49;;;;;;;5.77;1.90;;;;;;;;;;5012313;28;20429;-51
2021/09/28 08:16:15;;;;;;;6.73;2.27;;;;;;;;;;5012299;28;20470;-52
2021/09/28 08:18:41;;;;;;;3.03;2.07;;;;;;;;;;5012676;28;20394;-52
2021/09/28 08:21:07;;;;;;;4.23;2.30;;;;;;;;;;5012144;28;20780;-50
2021/09/28 08:23:36;;;;;;;11.87;2.23;;;;;;;;;;5012429;28;20422;-50
2021/09/28 08:31:32;;;;;;;5.97;1.90;;;;;;;;;;5012233;28;20427;-50
2021/09/28 08:33:57;;;;;;;4.17;1.87;;;;;;;;;;5012052;28;20517;-51
2021/09/28 08:36:23;;;;;;;10.60;2.43;;;;;;;;;;5012228;28;20471;-48
2021/09/28 08:38:49;;;;;;;4.87;2.00;;;;;;;;;;5012191;28;20414;-51
2021/09/28 08:41:15;;;;;;;3.80;1.60;;;;;;;;;;5020600;28;20409;-50
2021/09/28 08:43:42;;;;;;;7.33;2.60;;;;;;;;;;5031655;28;20529;-51
2021/09/28 08:46:08;;;;;;;9.20;1.83;;;;;;;;;;5031501;28;20770;-50
2021/09/28 08:48:34;;;;;;;7.67;1.90;;;;;;;;;;5031743;28;20961;-51
2021/09/28 08:51:00;;;;;;;10.47;2.43;;;;;;;;;;5031382;28;20488;-50
2021/09/28 08:53:26;;;;;;;8.43;1.90;;;;;;;;;;5031522;28;20433;-51
2021/09/28 08:55:51;;;;;;;7.67;1.67;;;;;;;;;;5031579;28;20961;-49
2021/09/28 08:58:21;;;;;;;7.00;2.73;;;;;;;;;;5032089;28;20406;-49
2021/09/28 09:00:48;;;;;;;6.70;2.30;;;;;;;;;;5031535;28;20406;-50
2021/09/28 09:03:27;;;;;;;9.13;2.57;;;;;;;;;;5031180;28;20914;-51
2021/09/28 09:05:53;;;;;;;5.13;1.80;;;;;;;;;;5031681;28;20813;-51
2021/09/28 09:08:29;;;;;;;3.40;1.60;;;;;;;;;;5031677;28;20406;-51
2021/09/28 09:11:08;;;;;;;5.23;2.00;;;;;;;;;;5031494;28;20898;-50
2021/09/28 09:13:35;;;;;;;7.30;1.90;;;;;;;;;;5031245;28;20781;-52
2021/09/28 09:16:01;;;;;;;4.37;1.93;;;;;;;;;;5031454;28;20907;-51
2021/09/28 09:18:27;;;;;;;7.40;2.23;;;;;;;;;;5031548;28;20434;-49
2021/09/28 09:20:53;;;;;;;7.77;2.50;;;;;;;;;;5031465;28;20493;-50
2021/09/28 09:23:27;;;;;;;6.83;2.20;;;;;;;;;;5031206;28;20452;-49
2021/09/28 09:26:03;;;;;;;3.50;1.70;;;;;;;;;;5031504;28;20897;-52
2021/09/28 09:28:32;;;;;;;4.83;1.77;;;;;;;;;;5031407;28;20402;-52
2021/09/28 09:31:09;;;;;;;4.30;2.10;;;;;;;;;;5031379;28;20413;-51
2021/09/28 09:33:35;;;;;;;6.60;1.87;;;;;;;;;;5031084;28;20434;-51
2021/09/28 09:36:01;;;;;;;11.10;2.20;;;;;;;;;;5031168;28;20507;-52
2021/09/28 09:38:27;;;;;;;10.40;2.30;;;;;;;;;;5030049;28;20509;-52
2021/09/28 09:40:53;;;;;;;6.63;1.77;;;;;;;;;;5031565;28;20477;-52
2021/09/28 09:43:28;;;;;;;5.50;1.67;;;;;;;;;;5031163;28;20825;-52
2021/09/28 09:46:11;;;;;;;5.27;1.90;;;;;;;;;;5031351;28;20399;-52
2021/09/28 09:48:37;;;;;;;6.27;2.17;;;;;;;;;;5031005;28;20894;-49
2021/09/28 09:51:04;;;;;;;6.13;1.77;;;;;;;;;;5031117;28;20771;-50
2021/09/28 09:53:30;;;;;;;7.77;2.10;;;;;;;;;;5031029;28;20428;-51
2021/09/28 09:55:58;;;;;;;5.63;2.10;;;;;;;;;;5031098;28;20937;-52
2021/09/28 09:58:24;;;;;;;7.57;2.67;;;;;;;;;;5031135;28;20937;-50
2021/09/28 10:00:53;;;;;;;7.33;2.30;;;;;;;;;;5031086;28;20402;-51
2021/09/28 10:03:19;;;;;;;6.50;1.97;;;;;;;;;;5033228;28;20819;-51
2021/09/28 10:05:45;;;;;;;6.83;1.90;;;;;;;;;;5034670;28;20401;-51
2021/09/28 10:08:13;;;;;;;16.40;2.70;;;;;;;;;;5034712;28;20792;-51
2021/09/28 10:10:40;;;;;;;9.60;2.57;;;;;;;;;;5034491;28;20402;-51
2021/09/28 10:13:07;;;;;;;9.00;2.30;;;;;;;;;;5034162;28;20424;-51
2021/09/28 10:15:34;;;;;;;11.70;3.10;;;;;;;;;;5034066;28;20458;-51
2021/09/28 10:18:00;;;;;;;11.77;3.07;;;;;;;;;;5035103;28;20965;-46
2021/09/28 10:20:30;;;;;;;12.27;3.27;;;;;;;;;;5034407;28;20475;-48
2021/09/28 10:22:58;;;;;;;5.30;2.00;;;;;;;;;;5034076;28;20417;-47
2021/09/28 10:25:34;;;;;;;15.73;2.20;;;;;;;;;;5034285;28;20455;-48
2021/09/28 10:28:03;;;;;;;7.23;2.20;;;;;;;;;;5034152;28;20431;-49
2021/09/28 10:30:29;;;;;;;8.10;2.63;;;;;;;;;;5034190;28;20405;-47
2021/09/28 10:32:56;;;;;;;11.20;2.17;;;;;;;;;;5034167;28;20785;-47
2021/09/28 10:35:24;;;;;;;4.27;2.13;;;;;;;;;;5034007;28;20489;-47
2021/09/28 10:37:50;;;;;;;12.40;2.30;;;;;;;;;;5034111;28;20402;-47
2021/09/28 10:40:18;;;;;;;9.10;2.20;;;;;;;;;;5034114;28;20421;-47
2021/09/28 10:43:10;;;;;;;5.30;1.80;;;;;;;;;;5033418;28;20430;-47
2021/09/28 10:45:36;;;;;;;12.70;2.13;;;;;;;;;;5034513;28;20481;-47
2021/09/28 10:48:06;;;;;;;6.93;1.77;;;;;;;;;;5033855;28;20878;-47
2021/09/28 10:50:37;;;;;;;9.07;2.00;;;;;;;;;;5034573;28;20416;-51
2021/09/28 10:53:04;;;;;;;4.70;2.00;;;;;;;;;;5033655;28;20836;-51
2021/09/28 10:55:55;;;;;;;5.30;1.73;;;;;;;;;;5033640;28;20453;-51
2021/09/28 10:58:22;;;;;;;3.97;1.83;;;;;;;;;;5034204;28;20765;-51
2021/09/28 11:00:49;;;;;;;12.60;2.20;;;;;;;;;;5033001;28;20452;-50
2021/09/28 11:03:15;;;;;;;7.87;1.90;;;;;;;;;;5031568;28;20414;-50
2021/09/28 11:05:42;;;;;;;6.53;2.30;;;;;;;;;;5033437;28;20402;-51
2021/09/28 11:08:16;;;;;;;4.90;2.17;;;;;;;;;;5033581;28;20410;-52
2021/09/28 11:10:54;;;;;;;9.57;2.17;;;;;;;;;;5032005;28;20463;-51
2021/09/28 11:13:20;;;;;;;5.10;2.33;;;;;;;;;;5033214;28;20785;-51
2021/09/28 11:15:46;;;;;;;5.53;2.27;;;;;;;;;;5032893;28;20462;-52
2021/09/28 11:18:13;;;;;;;4.03;1.90;;;;;;;;;;5033210;28;20901;-50
2021/09/28 11:20:39;;;;;;;5.30;2.00;;;;;;;;;;5033312;28;20512;-51
2021/09/28 11:23:09;;;;;;;11.47;2.07;;;;;;;;;;5032996;28;20493;-51
2021/09/28 11:25:36;;;;;;;6.10;2.23;;;;;;;;;;5033316;28;20409;-52
2021/09/28 11:28:02;;;;;;;7.37;2.10;;;;;;;;;;5033214;28;20402;-49
2021/09/28 11:30:28;;;;;;;7.67;1.90;;;;;;;;;;5032955;28;20408;-52
2021/09/28 11:32:56;;;;;;;6.60;1.97;;;;;;;;;;5032811;28;20549;-51
2021/09/28 11:35:22;;;;;;;4.57;1.87;;;;;;;;;;5032885;28;20839;-51
2021/09/28 11:37:53;;;;;;;3.57;1.70;;;;;;;;;;5032988;28;20489;-49
2021/09/28 11:40:19;;;;;;;8.67;2.63;;;;;;;;;;5033005;28;20403;-50
2021/09/28 11:42:45;;;;;;;4.30;1.90;;;;;;;;;;5032888;28;20479;-50
2021/09/28 11:45:11;;;;;;;4.47;1.83;;;;;;;;;;5032649;28;20410;-52
2021/09/28 11:47:40;;;;;;;4.43;1.70;;;;;;;;;;5032907;28;20492;-52
2021/09/28 11:50:06;;;;;;;9.40;1.90;;;;;;;;;;5032740;28;20433;-51
2021/09/28 11:52:35;;;;;;;4.50;1.50;;;;;;;;;;5032473;28;20420;-51
2021/09/28 11:55:01;;;;;;;5.43;1.57;;;;;;;;;;5032685;28;21026;-52
2021/09/28 11:57:29;;;;;;;4.77;1.87;;;;;;;;;;5032519;28;20480;-51
2021/09/28 11:59:55;;;;;;;5.87;2.67;;;;;;;;;;5032363;28;20778;-50
2021/09/28 12:02:22;;;;;;;4.40;2.00;;;;;;;;;;5032125;28;20415;-49
2021/09/28 12:05:13;;;;;;;5.37;1.83;;;;;;;;;;5032470;28;20736;-52
2021/09/28 12:10:19;;;;;;;5.33;1.90;;;;;;;;;;5032336;28;20435;-52
2021/09/28 12:12:45;;;;;;;8.90;2.43;;;;;;;;;;5032044;28;20433;-51
2021/09/28 12:15:11;;;;;;;4.60;1.87;;;;;;;;;;5032159;28;20420;-52
2021/09/28 12:17:41;;;;;;;4.83;1.73;;;;;;;;;;5032251;28;20545;-51
2021/09/28 12:20:11;;;;;;;5.47;1.70;;;;;;;;;;5032241;28;20405;-51
2021/09/28 12:22:43;;;;;;;5.57;2.00;;;;;;;;;;5031668;28;20430;-52
2021/09/28 12:25:12;;;;;;;6.90;1.97;;;;;;;;;;5031780;28;20547;-52
2021/09/28 12:27:50;;;;;;;6.17;2.00;;;;;;;;;;5031771;28;20413;-51
2021/09/28 12:30:16;;;;;;;6.57;2.13;;;;;;;;;;5032089;28;20416;-52
2021/09/28 12:32:48;;;;;;;3.73;2.10;;;;;;;;;;5031741;28;20743;-52
2021/09/28 12:35:14;;;;;;;6.20;2.80;;;;;;;;;;5031788;28;20403;-52
2021/09/28 12:37:47;;;;;;;9.47;1.83;;;;;;;;;;5031912;28;20780;-52
2021/09/28 12:40:15;;;;;;;5.13;1.90;;;;;;;;;;5031916;28;20398;-50
2021/09/28 12:42:42;;;;;;;5.67;2.10;;;;;;;;;;5031463;28;20425;-51
2021/09/28 12:45:10;;;;;;;6.60;1.87;;;;;;;;;;5031972;28;20402;-51
2021/09/28 12:47:37;;;;;;;6.63;2.17;;;;;;;;;;5031658;28;20403;-51
2021/09/28 12:50:15;;;;;;;7.70;2.13;;;;;;;;;;5031985;28;20414;-51
2021/09/28 12:52:41;;;;;;;6.20;1.90;;;;;;;;;;5031726;28;20778;-52
2021/09/28 12:55:07;;;;;;;6.47;2.33;;;;;;;;;;5031806;28;20489;-51
2021/09/28 12:57:33;;;;;;;11.10;2.07;;;;;;;;;;5031623;28;20942;-52
2021/09/28 12:59:59;;;;;;;9.03;2.20;;;;;;;;;;5031977;28;20426;-51
2021/09/28 13:02:25;;;;;;;17.30;11.40;;;;;;;;;;5031134;28;20873;-51
2021/09/28 13:04:51;;;;;;;4.00;1.77;;;;;;;;;;5029918;28;20409;-50
2021/09/28 13:07:17;;;;;;;3.67;2.27;;;;;;;;;;5031488;28;20481;-50
2021/09/28 13:09:44;;;;;;;3.10;2.00;;;;;;;;;;5031623;28;20398;-50
2021/09/28 13:12:10;;;;;;;10.87;2.93;;;;;;;;;;5031264;28;20409;-52
2021/09/28 13:14:36;;;;;;;9.33;2.57;;;;;;;;;;5031459;28;20768;-51
2021/09/28 13:17:02;;;;;;;7.20;1.90;;;;;;;;;;5031912;28;20473;-50
2021/09/28 13:19:29;;;;;;;7.10;2.00;;;;;;;;;;5031559;28;20523;-50
2021/09/28 13:21:55;;;;;;;6.53;1.93;;;;;;;;;;5031316;28;20409;-51
2021/09/28 13:24:21;;;;;;;7.00;1.70;;;;;;;;;;5031416;28;20422;-51
2021/09/28 13:26:47;;;;;;;4.77;2.63;;;;;;;;;;5031569;28;20398;-51
2021/09/28 13:29:14;;;;;;;6.83;1.93;;;;;;;;;;5031427;28;20924;-50
2021/09/28 13:31:40;;;;;;;4.17;1.90;;;;;;;;;;5031217;28;20491;-51
2021/09/28 13:34:06;;;;;;;11.03;1.83;;;;;;;;;;5031421;28;20913;-52
2021/09/28 13:36:35;;;;;;;2.63;1.63;;;;;;;;;;5031448;28;20463;-51
2021/09/28 13:39:01;;;;;;;4.90;2.30;;;;;;;;;;5035236;28;20402;-49
2021/09/28 13:41:27;;;;;;;6.83;1.50;;;;;;;;;;5034985;28;20390;-50
2021/09/28 13:43:53;;;;;;;9.70;2.27;;;;;;;;;;5034702;28;20428;-51
2021/09/28 13:46:19;;;;;;;4.73;2.00;;;;;;;;;;5035058;28;20407;-52
2021/09/28 13:48:45;;;;;;;4.93;2.00;;;;;;;;;;5035073;28;20463;-51
2021/09/28 13:51:11;;;;;;;6.87;1.73;;;;;;;;;;5034985;28;20441;-51
2021/09/28 13:53:37;;;;;;;3.60;1.60;;;;;;;;;;5034701;28;20426;-51
2021/09/28 13:56:03;;;;;;;6.10;2.03;;;;;;;;;;5034831;28;20449;-51
2021/09/28 13:58:29;;;;;;;3.00;1.70;;;;;;;;;;5034717;28;20762;-52
2021/09/28 14:00:55;;;;;;;5.33;1.87;;;;;;;;;;5034855;28;20401;-50
2021/09/28 14:03:21;;;;;;;5.00;1.77;;;;;;;;;;5034515;28;20523;-49
2021/09/28 14:05:47;;;;;;;6.77;2.57;;;;;;;;;;5034724;28;20758;-51
2021/09/28 14:08:13;;;;;;;5.87;1.80;;;;;;;;;;5034697;28;20402;-50
2021/09/28 14:10:39;;;;;;;3.47;1.63;;;;;;;;;;5034605;28;20429;-52
2021/09/28 14:13:05;;;;;;;5.83;1.83;;;;;;;;;;5034048;28;20804;-52
2021/09/28 14:15:31;;;;;;;6.93;1.70;;;;;;;;;;5034457;28;20792;-51
2021/09/28 14:17:58;;;;;;;4.87;1.63;;;;;;;;;;5034518;28;20402;-50
2021/09/28 14:20:24;;;;;;;6.00;1.80;;;;;;;;;;5034519;28;20894;-51
2021/09/28 14:22:50;;;;;;;4.50;1.73;;;;;;;;;;5034036;28;20432;-51
2021/09/28 14:25:16;;;;;;;6.60;2.00;;;;;;;;;;5034333;28;20452;-51
2021/09/28 14:27:42;;;;;;;4.13;1.80;;;;;;;;;;5034254;28;20412;-50
2021/09/28 14:30:08;;;;;;;6.70;1.97;;;;;;;;;;5034353;28;20496;-49
2021/09/28 14:32:35;;;;;;;3.00;1.63;;;;;;;;;;5033914;28;20423;-51
2021/09/28 14:35:01;;;;;;;6.73;2.30;;;;;;;;;;5034518;28;20770;-51
2021/09/28 14:37:27;;;;;;;6.17;1.87;;;;;;;;;;5034198;28;20449;-51
2021/09/28 14:39:56;;;;;;;6.77;1.97;;;;;;;;;;5034125;28;20402;-51
2021/09/28 14:42:22;;;;;;;4.00;1.83;;;;;;;;;;5033768;28;20828;-51
2021/09/28 14:44:49;;;;;;;9.97;2.03;;;;;;;;;;5034005;28;20893;-51